sensor_id;sensor_type;location;lat;lon;timestamp;P1;durP1;ratioP1;P2;durP2;ratioP2
75362;SDS011;64122;51.988;5.892;2023-11-22T00:00:23;12.65;;;6.65;;
75362;SDS011;64122;51.988;5.892;2023-11-22T00:02:52;12.98;;;6.03;;
75362;SDS011;64122;51.988;5.892;2023-11-22T00:05:21;10.85;;;5.60;;
75362;SDS011;64122;51.988;5.892;2023-11-22T00:07:53;13.27;;;5.47;;
75362;SDS011;64122;51.988;5.892;2023-11-22T00:10:22;12.30;;;6.40;;
75362;SDS011;64122;51.988;5.892;2023-11-22T00:12:52;14.02;;;6.63;;
75362;SDS011;64122;51.988;5.892;2023-11-22T00:15:21;12.07;;;6.65;;
75362;SDS011;64122;51.988;5.892;2023-11-22T00:17:51;12.93;;;6.78;;
75362;SDS011;64122;51.988;5.892;2023-11-22T00:20:23;14.07;;;6.40;;
75362;SDS011;64122;51.988;5.892;2023-11-22T00:22:55;12.93;;;5.95;;
75362;SDS011;64122;51.988;5.892;2023-11-22T00:25:24;11.02;;;5.28;;
75362;SDS011;64122;51.988;5.892;2023-11-22T00:27:54;11.02;;;5.85;;
75362;SDS011;64122;51.988;5.892;2023-11-22T00:30:23;11.70;;;6.18;;
75362;SDS011;64122;51.988;5.892;2023-11-22T00:32:53;14.95;;;6.25;;
75362;SDS011;64122;51.988;5.892;2023-11-22T00:35:23;14.60;;;6.78;;
75362;SDS011;64122;51.988;5.892;2023-11-22T00:37:55;11.55;;;5.45;;
75362;SDS011;64122;51.988;5.892;2023-11-22T00:40:24;12.65;;;6.28;;
75362;SDS011;64122;51.988;5.892;2023-11-22T00:42:53;12.77;;;6.40;;
75362;SDS011;64122;51.988;5.892;2023-11-22T00:45:23;12.88;;;6.57;;
75362;SDS011;64122;51.988;5.892;2023-11-22T00:47:53;10.10;;;5.55;;
75362;SDS011;64122;51.988;5.892;2023-11-22T00:50:22;10.68;;;5.55;;
75362;SDS011;64122;51.988;5.892;2023-11-22T00:52:56;11.13;;;5.25;;
75362;SDS011;64122;51.988;5.892;2023-11-22T00:55:25;11.13;;;5.68;;
75362;SDS011;64122;51.988;5.892;2023-11-22T00:57:54;14.80;;;6.68;;
75362;SDS011;64122;51.988;5.892;2023-11-22T01:00:29;12.20;;;6.03;;
75362;SDS011;64122;51.988;5.892;2023-11-22T01:02:59;14.85;;;6.65;;
75362;SDS011;64122;51.988;5.892;2023-11-22T01:05:30;14.32;;;7.03;;
75362;SDS011;64122;51.988;5.892;2023-11-22T01:08:02;12.57;;;5.80;;
75362;SDS011;64122;51.988;5.892;2023-11-22T01:10:32;10.60;;;5.70;;
75362;SDS011;64122;51.988;5.892;2023-11-22T01:13:01;9.45;;;4.78;;
75362;SDS011;64122;51.988;5.892;2023-11-22T01:15:30;13.02;;;5.55;;
75362;SDS011;64122;51.988;5.892;2023-11-22T01:17:59;13.85;;;5.90;;
75362;SDS011;64122;51.988;5.892;2023-11-22T01:20:29;12.25;;;5.55;;
75362;SDS011;64122;51.988;5.892;2023-11-22T01:22:58;12.60;;;6.18;;
75362;SDS011;64122;51.988;5.892;2023-11-22T01:25:33;11.02;;;5.80;;
75362;SDS011;64122;51.988;5.892;2023-11-22T01:28:02;10.88;;;5.63;;
75362;SDS011;64122;51.988;5.892;2023-11-22T01:30:32;12.23;;;5.95;;
75362;SDS011;64122;51.988;5.892;2023-11-22T01:33:01;10.32;;;4.68;;
75362;SDS011;64122;51.988;5.892;2023-11-22T01:35:30;13.20;;;5.60;;
75362;SDS011;64122;51.988;5.892;2023-11-22T01:38:00;11.18;;;5.03;;
75362;SDS011;64122;51.988;5.892;2023-11-22T01:40:30;9.23;;;5.07;;
75362;SDS011;64122;51.988;5.892;2023-11-22T01:43:02;12.73;;;5.78;;
75362;SDS011;64122;51.988;5.892;2023-11-22T01:45:31;10.82;;;5.80;;
75362;SDS011;64122;51.988;5.892;2023-11-22T01:48:00;10.20;;;5.53;;
75362;SDS011;64122;51.988;5.892;2023-11-22T01:50:29;12.20;;;5.35;;
75362;SDS011;64122;51.988;5.892;2023-11-22T01:52:59;12.00;;;5.40;;
75362;SDS011;64122;51.988;5.892;2023-11-22T01:55:28;10.95;;;5.20;;
75362;SDS011;64122;51.988;5.892;2023-11-22T01:58:01;16.83;;;5.43;;
75362;SDS011;64122;51.988;5.892;2023-11-22T02:00:31;11.05;;;5.47;;
75362;SDS011;64122;51.988;5.892;2023-11-22T02:03:04;12.38;;;5.75;;
75362;SDS011;64122;51.988;5.892;2023-11-22T02:05:33;12.30;;;5.90;;
75362;SDS011;64122;51.988;5.892;2023-11-22T02:08:03;12.55;;;5.65;;
75362;SDS011;64122;51.988;5.892;2023-11-22T02:10:33;12.07;;;5.30;;
75362;SDS011;64122;51.988;5.892;2023-11-22T02:13:05;13.30;;;6.38;;
75362;SDS011;64122;51.988;5.892;2023-11-22T02:15:35;12.18;;;5.10;;
75362;SDS011;64122;51.988;5.892;2023-11-22T02:18:04;11.45;;;5.60;;
75362;SDS011;64122;51.988;5.892;2023-11-22T02:20:35;11.43;;;6.03;;
75362;SDS011;64122;51.988;5.892;2023-11-22T02:23:10;14.35;;;5.70;;
75362;SDS011;64122;51.988;5.892;2023-11-22T02:25:39;13.52;;;5.85;;
75362;SDS011;64122;51.988;5.892;2023-11-22T02:28:08;14.52;;;5.65;;
75362;SDS011;64122;51.988;5.892;2023-11-22T02:30:37;13.45;;;6.47;;
75362;SDS011;64122;51.988;5.892;2023-11-22T02:33:07;9.32;;;5.40;;
75362;SDS011;64122;51.988;5.892;2023-11-22T02:35:36;12.80;;;5.47;;
75362;SDS011;64122;51.988;5.892;2023-11-22T02:38:10;13.88;;;6.13;;
75362;SDS011;64122;51.988;5.892;2023-11-22T02:40:40;12.95;;;5.32;;
75362;SDS011;64122;51.988;5.892;2023-11-22T02:43:09;11.63;;;5.85;;
75362;SDS011;64122;51.988;5.892;2023-11-22T02:45:38;13.18;;;6.07;;
75362;SDS011;64122;51.988;5.892;2023-11-22T02:48:08;12.77;;;5.55;;
75362;SDS011;64122;51.988;5.892;2023-11-22T02:50:39;12.55;;;5.65;;
75362;SDS011;64122;51.988;5.892;2023-11-22T02:53:12;14.30;;;5.40;;
75362;SDS011;64122;51.988;5.892;2023-11-22T02:55:41;10.52;;;5.47;;
75362;SDS011;64122;51.988;5.892;2023-11-22T02:58:11;13.23;;;5.85;;
75362;SDS011;64122;51.988;5.892;2023-11-22T03:00:42;10.80;;;5.20;;
75362;SDS011;64122;51.988;5.892;2023-11-22T03:03:11;12.13;;;5.90;;
75362;SDS011;64122;51.988;5.892;2023-11-22T03:05:40;10.93;;;5.65;;
75362;SDS011;64122;51.988;5.892;2023-11-22T03:08:12;12.13;;;5.53;;
75362;SDS011;64122;51.988;5.892;2023-11-22T03:10:42;13.65;;;6.15;;
75362;SDS011;64122;51.988;5.892;2023-11-22T03:13:11;11.98;;;5.38;;
75362;SDS011;64122;51.988;5.892;2023-11-22T03:15:41;11.75;;;5.85;;
75362;SDS011;64122;51.988;5.892;2023-11-22T03:18:11;13.73;;;6.82;;
75362;SDS011;64122;51.988;5.892;2023-11-22T03:20:42;13.77;;;6.18;;
75362;SDS011;64122;51.988;5.892;2023-11-22T03:23:13;12.13;;;5.65;;
75362;SDS011;64122;51.988;5.892;2023-11-22T03:25:43;11.27;;;5.93;;
75362;SDS011;64122;51.988;5.892;2023-11-22T03:28:13;12.27;;;5.80;;
75362;SDS011;64122;51.988;5.892;2023-11-22T03:30:43;13.70;;;6.28;;
75362;SDS011;64122;51.988;5.892;2023-11-22T03:33:12;12.27;;;5.90;;
75362;SDS011;64122;51.988;5.892;2023-11-22T03:35:41;13.32;;;5.63;;
75362;SDS011;64122;51.988;5.892;2023-11-22T03:38:10;10.77;;;5.60;;
75362;SDS011;64122;51.988;5.892;2023-11-22T03:40:42;16.45;;;6.28;;
75362;SDS011;64122;51.988;5.892;2023-11-22T03:43:11;12.88;;;5.75;;
75362;SDS011;64122;51.988;5.892;2023-11-22T03:45:40;11.55;;;5.40;;
75362;SDS011;64122;51.988;5.892;2023-11-22T03:48:10;10.00;;;5.18;;
75362;SDS011;64122;51.988;5.892;2023-11-22T03:50:39;14.55;;;5.50;;
75362;SDS011;64122;51.988;5.892;2023-11-22T03:53:08;16.52;;;6.00;;
75362;SDS011;64122;51.988;5.892;2023-11-22T03:55:37;14.55;;;5.10;;
75362;SDS011;64122;51.988;5.892;2023-11-22T03:58:09;13.63;;;5.82;;
75362;SDS011;64122;51.988;5.892;2023-11-22T04:00:38;13.90;;;5.45;;
75362;SDS011;64122;51.988;5.892;2023-11-22T04:03:07;11.65;;;5.38;;
75362;SDS011;64122;51.988;5.892;2023-11-22T04:05:36;12.13;;;5.57;;
75362;SDS011;64122;51.988;5.892;2023-11-22T04:08:06;12.95;;;5.60;;
75362;SDS011;64122;51.988;5.892;2023-11-22T04:10:35;11.30;;;5.50;;
75362;SDS011;64122;51.988;5.892;2023-11-22T04:13:04;14.48;;;6.05;;
75362;SDS011;64122;51.988;5.892;2023-11-22T04:15:36;12.55;;;6.47;;
75362;SDS011;64122;51.988;5.892;2023-11-22T04:18:06;14.10;;;6.28;;
75362;SDS011;64122;51.988;5.892;2023-11-22T04:20:35;12.05;;;5.63;;
75362;SDS011;64122;51.988;5.892;2023-11-22T04:23:04;13.27;;;6.22;;
75362;SDS011;64122;51.988;5.892;2023-11-22T04:25:36;13.27;;;6.22;;
75362;SDS011;64122;51.988;5.892;2023-11-22T04:28:06;13.10;;;5.85;;
75362;SDS011;64122;51.988;5.892;2023-11-22T04:30:40;16.55;;;5.90;;
75362;SDS011;64122;51.988;5.892;2023-11-22T04:33:09;19.58;;;6.70;;
75362;SDS011;64122;51.988;5.892;2023-11-22T04:35:39;12.68;;;6.05;;
75362;SDS011;64122;51.988;5.892;2023-11-22T04:38:08;11.00;;;5.72;;
75362;SDS011;64122;51.988;5.892;2023-11-22T04:40:37;13.27;;;5.97;;
75362;SDS011;64122;51.988;5.892;2023-11-22T04:43:08;12.85;;;6.63;;
75362;SDS011;64122;51.988;5.892;2023-11-22T04:45:39;12.93;;;6.07;;
75362;SDS011;64122;51.988;5.892;2023-11-22T04:48:09;14.23;;;6.40;;
75362;SDS011;64122;51.988;5.892;2023-11-22T04:50:40;14.02;;;6.00;;
75362;SDS011;64122;51.988;5.892;2023-11-22T04:53:09;14.10;;;6.57;;
75362;SDS011;64122;51.988;5.892;2023-11-22T04:55:39;13.48;;;6.03;;
75362;SDS011;64122;51.988;5.892;2023-11-22T04:58:08;13.82;;;6.63;;
75362;SDS011;64122;51.988;5.892;2023-11-22T05:00:40;14.00;;;6.75;;
75362;SDS011;64122;51.988;5.892;2023-11-22T05:03:09;12.85;;;5.93;;
75362;SDS011;64122;51.988;5.892;2023-11-22T05:05:38;14.90;;;6.93;;
75362;SDS011;64122;51.988;5.892;2023-11-22T05:08:07;13.07;;;6.00;;
75362;SDS011;64122;51.988;5.892;2023-11-22T05:10:36;13.85;;;6.10;;
75362;SDS011;64122;51.988;5.892;2023-11-22T05:13:06;14.63;;;6.28;;
75362;SDS011;64122;51.988;5.892;2023-11-22T05:15:35;11.40;;;5.50;;
75362;SDS011;64122;51.988;5.892;2023-11-22T05:18:07;11.90;;;6.05;;
75362;SDS011;64122;51.988;5.892;2023-11-22T05:20:36;11.07;;;5.65;;
75362;SDS011;64122;51.988;5.892;2023-11-22T05:23:05;12.55;;;6.15;;
75362;SDS011;64122;51.988;5.892;2023-11-22T05:25:34;12.82;;;5.97;;
75362;SDS011;64122;51.988;5.892;2023-11-22T05:28:03;12.57;;;5.72;;
75362;SDS011;64122;51.988;5.892;2023-11-22T05:30:33;15.00;;;6.22;;
75362;SDS011;64122;51.988;5.892;2023-11-22T05:33:02;18.08;;;6.22;;
75362;SDS011;64122;51.988;5.892;2023-11-22T05:35:34;12.55;;;5.93;;
75362;SDS011;64122;51.988;5.892;2023-11-22T05:38:03;13.23;;;6.30;;
75362;SDS011;64122;51.988;5.892;2023-11-22T05:40:32;13.82;;;5.97;;
75362;SDS011;64122;51.988;5.892;2023-11-22T05:43:01;12.27;;;5.85;;
75362;SDS011;64122;51.988;5.892;2023-11-22T05:45:30;13.20;;;5.80;;
75362;SDS011;64122;51.988;5.892;2023-11-22T05:48:00;11.93;;;6.40;;
75362;SDS011;64122;51.988;5.892;2023-11-22T05:50:30;11.90;;;6.22;;
75362;SDS011;64122;51.988;5.892;2023-11-22T05:53:01;11.95;;;5.57;;
75362;SDS011;64122;51.988;5.892;2023-11-22T05:55:31;11.60;;;5.57;;
75362;SDS011;64122;51.988;5.892;2023-11-22T05:58:00;13.25;;;5.45;;
75362;SDS011;64122;51.988;5.892;2023-11-22T06:00:29;13.48;;;6.38;;
75362;SDS011;64122;51.988;5.892;2023-11-22T06:02:58;12.85;;;6.10;;
75362;SDS011;64122;51.988;5.892;2023-11-22T06:05:27;10.77;;;5.30;;
75362;SDS011;64122;51.988;5.892;2023-11-22T06:07:57;13.52;;;6.80;;
75362;SDS011;64122;51.988;5.892;2023-11-22T06:10:28;12.02;;;5.93;;
75362;SDS011;64122;51.988;5.892;2023-11-22T06:12:57;12.38;;;6.15;;
75362;SDS011;64122;51.988;5.892;2023-11-22T06:15:26;15.00;;;6.50;;
75362;SDS011;64122;51.988;5.892;2023-11-22T06:17:56;14.95;;;6.43;;
75362;SDS011;64122;51.988;5.892;2023-11-22T06:20:25;13.07;;;6.47;;
75362;SDS011;64122;51.988;5.892;2023-11-22T06:22:54;17.67;;;6.63;;
75362;SDS011;64122;51.988;5.892;2023-11-22T06:25:23;12.60;;;6.10;;
75362;SDS011;64122;51.988;5.892;2023-11-22T06:27:55;15.27;;;6.05;;
75362;SDS011;64122;51.988;5.892;2023-11-22T06:30:24;13.40;;;6.80;;
75362;SDS011;64122;51.988;5.892;2023-11-22T06:32:53;14.38;;;6.78;;
75362;SDS011;64122;51.988;5.892;2023-11-22T06:35:23;12.88;;;5.90;;
75362;SDS011;64122;51.988;5.892;2023-11-22T06:37:53;11.63;;;5.82;;
75362;SDS011;64122;51.988;5.892;2023-11-22T06:40:22;14.10;;;6.18;;
75362;SDS011;64122;51.988;5.892;2023-11-22T06:42:51;14.10;;;6.63;;
75362;SDS011;64122;51.988;5.892;2023-11-22T06:45:23;16.85;;;7.32;;
75362;SDS011;64122;51.988;5.892;2023-11-22T06:47:52;15.23;;;6.53;;
75362;SDS011;64122;51.988;5.892;2023-11-22T06:50:21;12.40;;;6.35;;
75362;SDS011;64122;51.988;5.892;2023-11-22T06:52:50;12.25;;;6.18;;
75362;SDS011;64122;51.988;5.892;2023-11-22T06:55:20;16.92;;;7.07;;
75362;SDS011;64122;51.988;5.892;2023-11-22T06:57:49;16.00;;;6.60;;
75362;SDS011;64122;51.988;5.892;2023-11-22T07:00:19;13.80;;;7.00;;
75362;SDS011;64122;51.988;5.892;2023-11-22T07:02:51;12.38;;;5.95;;
75362;SDS011;64122;51.988;5.892;2023-11-22T07:05:20;14.07;;;6.55;;
75362;SDS011;64122;51.988;5.892;2023-11-22T07:07:49;12.35;;;6.30;;
75362;SDS011;64122;51.988;5.892;2023-11-22T07:10:21;14.07;;;6.97;;
75362;SDS011;64122;51.988;5.892;2023-11-22T07:12:50;13.90;;;6.80;;
75362;SDS011;64122;51.988;5.892;2023-11-22T07:15:19;15.23;;;7.45;;
75362;SDS011;64122;51.988;5.892;2023-11-22T07:17:51;14.75;;;7.57;;
75362;SDS011;64122;51.988;5.892;2023-11-22T07:20:20;20.70;;;11.38;;
75362;SDS011;64122;51.988;5.892;2023-11-22T07:22:49;37.75;;;16.75;;
75362;SDS011;64122;51.988;5.892;2023-11-22T07:25:21;15.55;;;7.03;;
75362;SDS011;64122;51.988;5.892;2023-11-22T07:27:50;14.38;;;7.45;;
75362;SDS011;64122;51.988;5.892;2023-11-22T07:30:21;13.63;;;6.82;;
75362;SDS011;64122;51.988;5.892;2023-11-22T07:32:55;14.35;;;7.43;;
75362;SDS011;64122;51.988;5.892;2023-11-22T07:35:25;17.80;;;7.75;;
75362;SDS011;64122;51.988;5.892;2023-11-22T07:37:54;23.48;;;11.30;;
75362;SDS011;64122;51.988;5.892;2023-11-22T07:40:23;13.70;;;7.30;;
75362;SDS011;64122;51.988;5.892;2023-11-22T07:42:52;18.58;;;9.90;;
75362;SDS011;64122;51.988;5.892;2023-11-22T07:45:21;15.20;;;7.53;;
75362;SDS011;64122;51.988;5.892;2023-11-22T07:47:51;18.15;;;8.18;;
75362;SDS011;64122;51.988;5.892;2023-11-22T07:50:24;28.35;;;11.60;;
75362;SDS011;64122;51.988;5.892;2023-11-22T07:52:53;16.10;;;7.20;;
75362;SDS011;64122;51.988;5.892;2023-11-22T07:55:23;15.25;;;6.72;;
75362;SDS011;64122;51.988;5.892;2023-11-22T07:57:52;17.30;;;8.65;;
75362;SDS011;64122;51.988;5.892;2023-11-22T08:00:21;14.38;;;7.50;;
75362;SDS011;64122;51.988;5.892;2023-11-22T08:02:51;18.13;;;9.35;;
75362;SDS011;64122;51.988;5.892;2023-11-22T08:05:20;15.25;;;7.55;;
75362;SDS011;64122;51.988;5.892;2023-11-22T08:07:52;18.60;;;9.45;;
75362;SDS011;64122;51.988;5.892;2023-11-22T08:10:23;16.25;;;7.25;;
75362;SDS011;64122;51.988;5.892;2023-11-22T08:12:53;15.40;;;7.55;;
75362;SDS011;64122;51.988;5.892;2023-11-22T08:15:23;15.98;;;8.45;;
75362;SDS011;64122;51.988;5.892;2023-11-22T08:17:52;13.93;;;7.55;;
75362;SDS011;64122;51.988;5.892;2023-11-22T08:20:21;16.67;;;8.35;;
75362;SDS011;64122;51.988;5.892;2023-11-22T08:22:53;15.63;;;8.18;;
75362;SDS011;64122;51.988;5.892;2023-11-22T08:25:22;16.80;;;8.23;;
75362;SDS011;64122;51.988;5.892;2023-11-22T08:27:52;17.30;;;9.07;;
75362;SDS011;64122;51.988;5.892;2023-11-22T08:30:21;22.08;;;11.30;;
75362;SDS011;64122;51.988;5.892;2023-11-22T08:32:51;16.30;;;8.63;;
75362;SDS011;64122;51.988;5.892;2023-11-22T08:35:20;17.17;;;7.60;;
75362;SDS011;64122;51.988;5.892;2023-11-22T08:37:52;18.05;;;9.43;;
75362;SDS011;64122;51.988;5.892;2023-11-22T08:42:52;15.88;;;8.20;;
75362;SDS011;64122;51.988;5.892;2023-11-22T08:45:21;16.85;;;7.65;;
75362;SDS011;64122;51.988;5.892;2023-11-22T08:47:50;20.60;;;10.65;;
75362;SDS011;64122;51.988;5.892;2023-11-22T08:50:20;18.98;;;8.80;;
75362;SDS011;64122;51.988;5.892;2023-11-22T08:52:49;15.43;;;7.82;;
75362;SDS011;64122;51.988;5.892;2023-11-22T08:55:23;16.77;;;8.90;;
75362;SDS011;64122;51.988;5.892;2023-11-22T08:57:53;15.10;;;8.43;;
75362;SDS011;64122;51.988;5.892;2023-11-22T09:00:22;18.10;;;9.00;;
75362;SDS011;64122;51.988;5.892;2023-11-22T09:02:54;18.88;;;9.90;;
75362;SDS011;64122;51.988;5.892;2023-11-22T09:05:23;15.45;;;8.68;;
75362;SDS011;64122;51.988;5.892;2023-11-22T09:07:55;17.70;;;8.85;;
75362;SDS011;64122;51.988;5.892;2023-11-22T09:10:24;16.70;;;8.38;;
75362;SDS011;64122;51.988;5.892;2023-11-22T09:12:54;17.30;;;8.52;;
75362;SDS011;64122;51.988;5.892;2023-11-22T09:15:25;15.40;;;8.15;;
75362;SDS011;64122;51.988;5.892;2023-11-22T09:17:55;21.00;;;10.57;;
75362;SDS011;64122;51.988;5.892;2023-11-22T09:20:25;16.13;;;8.13;;
75362;SDS011;64122;51.988;5.892;2023-11-22T09:22:57;16.17;;;8.20;;
75362;SDS011;64122;51.988;5.892;2023-11-22T09:25:26;16.17;;;9.32;;
75362;SDS011;64122;51.988;5.892;2023-11-22T09:27:56;14.07;;;7.95;;
75362;SDS011;64122;51.988;5.892;2023-11-22T09:30:27;16.30;;;8.77;;
75362;SDS011;64122;51.988;5.892;2023-11-22T09:33:05;16.25;;;8.02;;
75362;SDS011;64122;51.988;5.892;2023-11-22T09:35:36;17.30;;;8.43;;
75362;SDS011;64122;51.988;5.892;2023-11-22T09:38:08;18.20;;;8.07;;
75362;SDS011;64122;51.988;5.892;2023-11-22T09:40:39;15.65;;;8.60;;
75362;SDS011;64122;51.988;5.892;2023-11-22T09:43:11;14.30;;;8.18;;
75362;SDS011;64122;51.988;5.892;2023-11-22T09:45:43;16.58;;;9.13;;
75362;SDS011;64122;51.988;5.892;2023-11-22T09:48:14;16.85;;;8.88;;
75362;SDS011;64122;51.988;5.892;2023-11-22T09:50:50;17.23;;;9.25;;
75362;SDS011;64122;51.988;5.892;2023-11-22T09:53:29;17.95;;;8.63;;
75362;SDS011;64122;51.988;5.892;2023-11-22T09:56:01;16.95;;;8.75;;
75362;SDS011;64122;51.988;5.892;2023-11-22T09:58:32;15.85;;;8.10;;
75362;SDS011;64122;51.988;5.892;2023-11-22T10:01:02;15.48;;;8.10;;
75362;SDS011;64122;51.988;5.892;2023-11-22T10:03:33;14.52;;;8.02;;
75362;SDS011;64122;51.988;5.892;2023-11-22T10:06:02;17.40;;;8.80;;
75362;SDS011;64122;51.988;5.892;2023-11-22T10:08:34;15.35;;;8.02;;
75362;SDS011;64122;51.988;5.892;2023-11-22T10:11:04;16.95;;;8.23;;
75362;SDS011;64122;51.988;5.892;2023-11-22T10:13:33;13.77;;;7.43;;
75362;SDS011;64122;51.988;5.892;2023-11-22T10:16:09;14.90;;;7.78;;
75362;SDS011;64122;51.988;5.892;2023-11-22T10:18:41;13.40;;;7.00;;
75362;SDS011;64122;51.988;5.892;2023-11-22T10:21:21;14.40;;;7.65;;
75362;SDS011;64122;51.988;5.892;2023-11-22T10:23:55;14.95;;;7.72;;
75362;SDS011;64122;51.988;5.892;2023-11-22T10:26:25;15.00;;;7.50;;
75362;SDS011;64122;51.988;5.892;2023-11-22T10:28:56;13.80;;;7.03;;
75362;SDS011;64122;51.988;5.892;2023-11-22T10:31:26;12.60;;;7.15;;
75362;SDS011;64122;51.988;5.892;2023-11-22T10:33:55;15.48;;;7.60;;
75362;SDS011;64122;51.988;5.892;2023-11-22T10:36:24;16.48;;;8.02;;
75362;SDS011;64122;51.988;5.892;2023-11-22T10:38:56;17.15;;;9.52;;
75362;SDS011;64122;51.988;5.892;2023-11-22T10:41:26;15.18;;;7.93;;
75362;SDS011;64122;51.988;5.892;2023-11-22T10:43:57;14.07;;;7.43;;
75362;SDS011;64122;51.988;5.892;2023-11-22T10:46:27;14.40;;;6.93;;
75362;SDS011;64122;51.988;5.892;2023-11-22T10:48:58;16.67;;;7.65;;
75362;SDS011;64122;51.988;5.892;2023-11-22T10:51:30;15.07;;;6.93;;
75362;SDS011;64122;51.988;5.892;2023-11-22T10:54:02;21.45;;;10.38;;
75362;SDS011;64122;51.988;5.892;2023-11-22T10:56:36;15.00;;;8.73;;
75362;SDS011;64122;51.988;5.892;2023-11-22T10:59:10;13.63;;;7.20;;
75362;SDS011;64122;51.988;5.892;2023-11-22T11:01:43;17.15;;;8.68;;
75362;SDS011;64122;51.988;5.892;2023-11-22T11:04:17;12.05;;;6.80;;
75362;SDS011;64122;51.988;5.892;2023-11-22T11:06:53;14.77;;;7.97;;
75362;SDS011;64122;51.988;5.892;2023-11-22T11:09:26;13.40;;;7.63;;
75362;SDS011;64122;51.988;5.892;2023-11-22T11:11:58;14.48;;;6.90;;
75362;SDS011;64122;51.988;5.892;2023-11-22T11:14:28;17.35;;;7.25;;
75362;SDS011;64122;51.988;5.892;2023-11-22T11:16:58;12.73;;;6.68;;
75362;SDS011;64122;51.988;5.892;2023-11-22T11:19:27;17.45;;;7.95;;
75362;SDS011;64122;51.988;5.892;2023-11-22T11:21:56;14.70;;;7.35;;
75362;SDS011;64122;51.988;5.892;2023-11-22T11:24:28;19.05;;;9.80;;
75362;SDS011;64122;51.988;5.892;2023-11-22T11:26:57;13.00;;;6.43;;
75362;SDS011;64122;51.988;5.892;2023-11-22T11:29:31;14.15;;;7.13;;
75362;SDS011;64122;51.988;5.892;2023-11-22T11:32:02;14.93;;;7.93;;
75362;SDS011;64122;51.988;5.892;2023-11-22T11:34:32;15.10;;;7.72;;
75362;SDS011;64122;51.988;5.892;2023-11-22T11:37:15;16.38;;;8.18;;
75362;SDS011;64122;51.988;5.892;2023-11-22T11:39:51;12.85;;;8.02;;
75362;SDS011;64122;51.988;5.892;2023-11-22T11:42:20;15.30;;;7.30;;
75362;SDS011;64122;51.988;5.892;2023-11-22T11:44:51;14.45;;;8.07;;
75362;SDS011;64122;51.988;5.892;2023-11-22T11:47:32;13.13;;;7.43;;
75362;SDS011;64122;51.988;5.892;2023-11-22T11:50:02;15.10;;;7.45;;
75362;SDS011;64122;51.988;5.892;2023-11-22T11:52:32;14.70;;;7.72;;
75362;SDS011;64122;51.988;5.892;2023-11-22T11:55:04;15.77;;;7.32;;
75362;SDS011;64122;51.988;5.892;2023-11-22T12:00:03;14.45;;;7.40;;
75362;SDS011;64122;51.988;5.892;2023-11-22T12:02:37;14.60;;;7.43;;
75362;SDS011;64122;51.988;5.892;2023-11-22T12:05:07;20.55;;;10.63;;
75362;SDS011;64122;51.988;5.892;2023-11-22T12:07:37;15.48;;;7.93;;
75362;SDS011;64122;51.988;5.892;2023-11-22T12:10:09;16.67;;;9.10;;
75362;SDS011;64122;51.988;5.892;2023-11-22T12:12:38;21.70;;;9.65;;
75362;SDS011;64122;51.988;5.892;2023-11-22T12:15:09;22.65;;;12.02;;
75362;SDS011;64122;51.988;5.892;2023-11-22T12:17:40;19.35;;;8.88;;
75362;SDS011;64122;51.988;5.892;2023-11-22T12:20:13;15.02;;;7.97;;
75362;SDS011;64122;51.988;5.892;2023-11-22T12:22:47;13.90;;;7.18;;
75362;SDS011;64122;51.988;5.892;2023-11-22T12:25:19;16.88;;;8.40;;
75362;SDS011;64122;51.988;5.892;2023-11-22T12:27:53;18.48;;;9.88;;
75362;SDS011;64122;51.988;5.892;2023-11-22T12:30:32;18.30;;;8.70;;
75362;SDS011;64122;51.988;5.892;2023-11-22T12:33:05;22.98;;;10.90;;
75362;SDS011;64122;51.988;5.892;2023-11-22T12:35:35;20.92;;;10.02;;
75362;SDS011;64122;51.988;5.892;2023-11-22T12:38:05;23.58;;;11.23;;
75362;SDS011;64122;51.988;5.892;2023-11-22T12:40:37;19.20;;;9.55;;
75362;SDS011;64122;51.988;5.892;2023-11-22T12:43:12;20.92;;;9.40;;
75362;SDS011;64122;51.988;5.892;2023-11-22T12:45:43;21.52;;;9.50;;
75362;SDS011;64122;51.988;5.892;2023-11-22T12:48:21;17.88;;;9.73;;
75362;SDS011;64122;51.988;5.892;2023-11-22T12:50:53;19.02;;;9.05;;
75362;SDS011;64122;51.988;5.892;2023-11-22T12:53:22;20.15;;;10.63;;
75362;SDS011;64122;51.988;5.892;2023-11-22T12:55:56;20.42;;;10.60;;
75362;SDS011;64122;51.988;5.892;2023-11-22T12:58:27;33.58;;;10.65;;
75362;SDS011;64122;51.988;5.892;2023-11-22T13:00:57;25.08;;;11.93;;
75362;SDS011;64122;51.988;5.892;2023-11-22T13:03:29;19.35;;;9.57;;
75362;SDS011;64122;51.988;5.892;2023-11-22T13:05:58;22.88;;;10.70;;
75362;SDS011;64122;51.988;5.892;2023-11-22T13:08:27;25.02;;;11.50;;
75362;SDS011;64122;51.988;5.892;2023-11-22T13:11:01;17.52;;;8.85;;
75362;SDS011;64122;51.988;5.892;2023-11-22T13:13:30;28.48;;;12.77;;
75362;SDS011;64122;51.988;5.892;2023-11-22T13:16:00;27.80;;;12.35;;
75362;SDS011;64122;51.988;5.892;2023-11-22T13:18:31;31.20;;;14.60;;
75362;SDS011;64122;51.988;5.892;2023-11-22T13:21:00;19.17;;;8.93;;
75362;SDS011;64122;51.988;5.892;2023-11-22T13:23:29;21.00;;;9.90;;
75362;SDS011;64122;51.988;5.892;2023-11-22T13:26:01;21.73;;;9.73;;
75362;SDS011;64122;51.988;5.892;2023-11-22T13:28:31;18.25;;;8.52;;
75362;SDS011;64122;51.988;5.892;2023-11-22T13:31:00;19.42;;;9.23;;
75362;SDS011;64122;51.988;5.892;2023-11-22T13:33:29;21.10;;;9.70;;
75362;SDS011;64122;51.988;5.892;2023-11-22T13:35:59;17.23;;;8.95;;
75362;SDS011;64122;51.988;5.892;2023-11-22T13:38:28;20.10;;;9.75;;
75362;SDS011;64122;51.988;5.892;2023-11-22T13:40:57;19.83;;;10.50;;
75362;SDS011;64122;51.988;5.892;2023-11-22T13:43:30;54.90;;;26.08;;
75362;SDS011;64122;51.988;5.892;2023-11-22T13:46:00;22.05;;;10.38;;
75362;SDS011;64122;51.988;5.892;2023-11-22T13:48:30;25.27;;;12.15;;
75362;SDS011;64122;51.988;5.892;2023-11-22T13:50:59;23.75;;;10.63;;
75362;SDS011;64122;51.988;5.892;2023-11-22T13:53:29;23.35;;;10.75;;
75362;SDS011;64122;51.988;5.892;2023-11-22T13:56:00;25.95;;;13.10;;
75362;SDS011;64122;51.988;5.892;2023-11-22T13:58:36;23.25;;;10.77;;
75362;SDS011;64122;51.988;5.892;2023-11-22T14:01:06;21.50;;;11.23;;
75362;SDS011;64122;51.988;5.892;2023-11-22T14:03:39;29.58;;;14.85;;
75362;SDS011;64122;51.988;5.892;2023-11-22T14:06:09;31.08;;;13.68;;
75362;SDS011;64122;51.988;5.892;2023-11-22T14:08:39;27.58;;;11.98;;
75362;SDS011;64122;51.988;5.892;2023-11-22T14:11:09;26.10;;;11.35;;
75362;SDS011;64122;51.988;5.892;2023-11-22T14:13:41;35.42;;;11.80;;
75362;SDS011;64122;51.988;5.892;2023-11-22T14:16:10;24.35;;;11.27;;
75362;SDS011;64122;51.988;5.892;2023-11-22T14:18:40;31.73;;;13.38;;
75362;SDS011;64122;51.988;5.892;2023-11-22T14:21:10;27.85;;;12.60;;
75362;SDS011;64122;51.988;5.892;2023-11-22T14:23:40;31.75;;;12.98;;
75362;SDS011;64122;51.988;5.892;2023-11-22T14:26:09;33.78;;;15.95;;
75362;SDS011;64122;51.988;5.892;2023-11-22T14:28:41;37.05;;;15.60;;
75362;SDS011;64122;51.988;5.892;2023-11-22T14:31:10;29.50;;;14.02;;
75362;SDS011;64122;51.988;5.892;2023-11-22T14:33:39;28.48;;;13.13;;
75362;SDS011;64122;51.988;5.892;2023-11-22T14:36:09;36.47;;;16.25;;
75362;SDS011;64122;51.988;5.892;2023-11-22T14:38:40;32.00;;;15.52;;
75362;SDS011;64122;51.988;5.892;2023-11-22T14:41:10;33.08;;;14.65;;
75362;SDS011;64122;51.988;5.892;2023-11-22T14:43:41;33.85;;;14.45;;
75362;SDS011;64122;51.988;5.892;2023-11-22T14:46:10;39.20;;;18.80;;
75362;SDS011;64122;51.988;5.892;2023-11-22T14:48:40;33.85;;;14.77;;
75362;SDS011;64122;51.988;5.892;2023-11-22T14:51:09;30.58;;;13.50;;
75362;SDS011;64122;51.988;5.892;2023-11-22T14:53:38;35.80;;;16.05;;
75362;SDS011;64122;51.988;5.892;2023-11-22T14:56:09;52.65;;;22.45;;